Gsp Alcor — 9V8448 — position and weather

sailwx.info

Track history (hours):
 
Tides and Currents Weather Stations Pressure Air Temp Water Temp Dewpoint Dewpoint Depression Visibility Wind Speed Wind Dir Waves Ship Positions

Gsp Alcor

Last reported at 2018-Apr-23 17:43 UTC. Time now 2018-Apr-24 05:00 UTC.
Position N 44°10' E 028°39'.

Length 59 m; draft 4.7 m.

Type: Ship. MMSI: 565543000.

Date/timePositionNaut miles runAvg speedWind from/ knotsBaromVisibWave heightAir tempDewpointWater temp
2018-Apr-23 17:43N 44°10' E 028°39'0 0.4
2018-Apr-23 17:30N 44°10' E 028°39'2 4.3
2018-Apr-23 17:00N 44°08' E 028°41'4 7.8
2018-Apr-23 16:30N 44°06' E 028°46'4 8.8
2018-Apr-23 16:00N 44°07' E 028°51'5 9.2
2018-Apr-23 15:30N 44°11' E 028°56'5 9.3
2018-Apr-23 15:00N 44°14' E 029°01'5 9.5
2018-Apr-23 14:31N 44°17' E 029°05'5 9.5
2018-Apr-23 14:00N 44°20' E 029°10'5 9.1
2018-Apr-23 13:30N 44°22' E 029°16'5 9.1
2018-Apr-23 13:01N 44°25' E 029°21'5 9.1
2018-Apr-23 12:30N 44°27' E 029°27'4 8.9
2018-Apr-23 12:00N 44°30' E 029°32'2 4.2
2018-Apr-23 11:30N 44°31' E 029°34'0 0.0
2018-Apr-23 11:00N 44°31' E 029°34'0 0.0
2018-Apr-23 10:30N 44°31' E 029°34'0 0.1
2018-Apr-23 10:00N 44°31' E 029°34'0 0.2
2018-Apr-23 09:30N 44°31' E 029°34'1 2.4
2018-Apr-23 09:00N 44°30' E 029°35'0 0.0
2018-Apr-23 08:28N 44°30' E 029°35'0 0.0
2018-Apr-23 07:43N 44°30' E 029°35'0 0.0
2018-Apr-23 07:16N 44°30' E 029°35'0 0.0
2018-Apr-23 06:58N 44°30' E 029°35'0 0.0
2018-Apr-23 06:28N 44°30' E 029°35'0 0.0
2018-Apr-23 05:55N 44°30' E 029°35'0 0.0
2018-Apr-23 05:28N 44°30' E 029°35'0 0.0
2018-Apr-23 04:58N 44°30' E 029°35'0 0.0
2018-Apr-23 04:28N 44°30' E 029°35'0 0.0
2018-Apr-23 03:58N 44°30' E 029°35'0 0.0
2018-Apr-23 03:28N 44°30' E 029°35'0 0.0
2018-Apr-22 23:34N 44°30' E 029°35'0 0.0
2018-Apr-22 23:28N 44°30' E 029°35'0 0.0
2018-Apr-22 22:58N 44°30' E 029°35'0 0.0
2018-Apr-22 22:28N 44°30' E 029°35'0 0.0
2018-Apr-22 21:58N 44°30' E 029°35'0 0.0
2018-Apr-22 21:28N 44°30' E 029°35'0 0.0
2018-Apr-22 20:52N 44°30' E 029°35'0 0.0
2018-Apr-22 20:28N 44°30' E 029°35'0 0.0
2018-Apr-22 19:58N 44°30' E 029°35'0 0.0
2018-Apr-22 19:28N 44°30' E 029°35'0 0.0
2018-Apr-22 18:58N 44°30' E 029°35'0 0.0
2018-Apr-22 18:28N 44°30' E 029°35'0 0.0
2018-Apr-22 17:58N 44°30' E 029°35'0 0.0
2018-Apr-22 13:58N 44°30' E 029°35'0 0.0
2018-Apr-22 11:46N 44°30' E 029°35'0 0.0
2018-Apr-22 11:22N 44°30' E 029°35'0 0.0
2018-Apr-22 09:34N 44°30' E 029°35'0 0.1
2018-Apr-22 09:10N 44°30' E 029°35'1 3.9
2018-Apr-22 09:00N 44°30' E 029°35'2 5.1
2018-Apr-22 08:30N 44°29' E 029°39'4 7.3
2018-Apr-22 08:00N 44°31' E 029°34'1 1.3
2018-Apr-22 07:30N 44°31' E 029°34'4 7.1
2018-Apr-22 07:00N 44°32' E 029°29'2 3.3
2018-Apr-22 06:30N 44°33' E 029°27'1 2.4
2018-Apr-22 06:00N 44°32' E 029°28'3 6.9
2018-Apr-22 05:30N 44°32' E 029°33'0 0.8
2018-Apr-22 05:01N 44°32' E 029°33'3 5.4
2018-Apr-22 04:30N 44°29' E 029°34'0 0.1
2018-Apr-22 04:00N 44°29' E 029°34'0 0.0
2018-Apr-22 03:30N 44°29' E 029°34'0 0.0
2018-Apr-22 03:00N 44°29' E 029°34'0 0.0
2018-Apr-22 02:30N 44°29' E 029°34'0 0.0
2018-Apr-22 02:00N 44°29' E 029°34'0 0.0
2018-Apr-22 01:30N 44°29' E 029°34'0 0.0
2018-Apr-22 01:00N 44°29' E 029°34'0 0.0
2018-Apr-22 00:30N 44°29' E 029°34'0 0.0
2018-Apr-21 23:42N 44°29' E 029°34'0 0.0
2018-Apr-21 23:24N 44°29' E 029°34'0 0.0
2018-Apr-21 22:21N 44°29' E 029°34'0 0.0
2018-Apr-21 22:00N 44°29' E 029°34'0 0.0
2018-Apr-21 21:12N 44°29' E 029°34'0 0.1
2018-Apr-21 21:00N 44°29' E 029°34'0 0.0
2018-Apr-21 20:30N 44°29' E 029°34'0 0.0
2018-Apr-21 20:00N 44°29' E 029°34'0 0.0
2018-Apr-21 19:30N 44°29' E 029°34'1 2.4
2018-Apr-21 19:00N 44°31' E 029°34'1 1.6
2018-Apr-21 18:30N 44°31' E 029°34'0 0.0
2018-Apr-21 17:59N 44°31' E 029°34'0 0.0
2018-Apr-21 17:26N 44°31' E 029°34'0 0.0
2018-Apr-21 16:58N 44°31' E 029°34'0 0.0
2018-Apr-21 16:30N 44°31' E 029°34'  
Track history (hours):
 
Tides and Currents Weather Stations Pressure Air Temp Water Temp Dewpoint Dewpoint Depression Visibility Wind Speed Wind Dir Waves Ship Positions

Gsp Alcor

Last reported at 2018-Apr-23 17:43 UTC. Time now 2018-Apr-24 05:00 UTC.
Position N 44°10' E 028°39'.

Length 59 m; draft 4.7 m.

Type: Ship. MMSI: 565543000.

Date/timePositionNaut miles runAvg speedWind from/ knotsBaromVisibWave heightAir tempDewpointWater temp
2018-Apr-23 17:43N 44°10' E 028°39'0 0.4
2018-Apr-23 17:30N 44°10' E 028°39'2 4.3
2018-Apr-23 17:00N 44°08' E 028°41'4 7.8
2018-Apr-23 16:30N 44°06' E 028°46'4 8.8
2018-Apr-23 16:00N 44°07' E 028°51'5 9.2
2018-Apr-23 15:30N 44°11' E 028°56'5 9.3
2018-Apr-23 15:00N 44°14' E 029°01'5 9.5
2018-Apr-23 14:31N 44°17' E 029°05'5 9.5
2018-Apr-23 14:00N 44°20' E 029°10'5 9.1
2018-Apr-23 13:30N 44°22' E 029°16'5 9.1
2018-Apr-23 13:01N 44°25' E 029°21'5 9.1
2018-Apr-23 12:30N 44°27' E 029°27'4 8.9
2018-Apr-23 12:00N 44°30' E 029°32'2 4.2
2018-Apr-23 11:30N 44°31' E 029°34'0 0.0
2018-Apr-23 11:00N 44°31' E 029°34'0 0.0
2018-Apr-23 10:30N 44°31' E 029°34'0 0.1
2018-Apr-23 10:00N 44°31' E 029°34'0 0.2
2018-Apr-23 09:30N 44°31' E 029°34'1 2.4
2018-Apr-23 09:00N 44°30' E 029°35'0 0.0
2018-Apr-23 08:28N 44°30' E 029°35'0 0.0
2018-Apr-23 07:43N 44°30' E 029°35'0 0.0
2018-Apr-23 07:16N 44°30' E 029°35'0 0.0
2018-Apr-23 06:58N 44°30' E 029°35'0 0.0
2018-Apr-23 06:28N 44°30' E 029°35'0 0.0
2018-Apr-23 05:55N 44°30' E 029°35'0 0.0
2018-Apr-23 05:28N 44°30' E 029°35'0 0.0
2018-Apr-23 04:58N 44°30' E 029°35'0 0.0
2018-Apr-23 04:28N 44°30' E 029°35'0 0.0
2018-Apr-23 03:58N 44°30' E 029°35'0 0.0
2018-Apr-23 03:28N 44°30' E 029°35'0 0.0
2018-Apr-22 23:34N 44°30' E 029°35'0 0.0
2018-Apr-22 23:28N 44°30' E 029°35'0 0.0
2018-Apr-22 22:58N 44°30' E 029°35'0 0.0
2018-Apr-22 22:28N 44°30' E 029°35'0 0.0
2018-Apr-22 21:58N 44°30' E 029°35'0 0.0
2018-Apr-22 21:28N 44°30' E 029°35'0 0.0
2018-Apr-22 20:52N 44°30' E 029°35'0 0.0
2018-Apr-22 20:28N 44°30' E 029°35'0 0.0
2018-Apr-22 19:58N 44°30' E 029°35'0 0.0
2018-Apr-22 19:28N 44°30' E 029°35'0 0.0
2018-Apr-22 18:58N 44°30' E 029°35'0 0.0
2018-Apr-22 18:28N 44°30' E 029°35'0 0.0
2018-Apr-22 17:58N 44°30' E 029°35'0 0.0
2018-Apr-22 13:58N 44°30' E 029°35'0 0.0
2018-Apr-22 11:46N 44°30' E 029°35'0 0.0
2018-Apr-22 11:22N 44°30' E 029°35'0 0.0
2018-Apr-22 09:34N 44°30' E 029°35'0 0.1
2018-Apr-22 09:10N 44°30' E 029°35'1 3.9
2018-Apr-22 09:00N 44°30' E 029°35'2 5.1
2018-Apr-22 08:30N 44°29' E 029°39'4 7.3
2018-Apr-22 08:00N 44°31' E 029°34'1 1.3
2018-Apr-22 07:30N 44°31' E 029°34'4 7.1
2018-Apr-22 07:00N 44°32' E 029°29'2 3.3
2018-Apr-22 06:30N 44°33' E 029°27'1 2.4
2018-Apr-22 06:00N 44°32' E 029°28'3 6.9
2018-Apr-22 05:30N 44°32' E 029°33'0 0.8
2018-Apr-22 05:01N 44°32' E 029°33'3 5.4
2018-Apr-22 04:30N 44°29' E 029°34'0 0.1
2018-Apr-22 04:00N 44°29' E 029°34'0 0.0
2018-Apr-22 03:30N 44°29' E 029°34'0 0.0
2018-Apr-22 03:00N 44°29' E 029°34'0 0.0
2018-Apr-22 02:30N 44°29' E 029°34'0 0.0
2018-Apr-22 02:00N 44°29' E 029°34'0 0.0
2018-Apr-22 01:30N 44°29' E 029°34'0 0.0
2018-Apr-22 01:00N 44°29' E 029°34'0 0.0
2018-Apr-22 00:30N 44°29' E 029°34'0 0.0
2018-Apr-21 23:42N 44°29' E 029°34'0 0.0
2018-Apr-21 23:24N 44°29' E 029°34'0 0.0
2018-Apr-21 22:21N 44°29' E 029°34'0 0.0
2018-Apr-21 22:00N 44°29' E 029°34'0 0.0
2018-Apr-21 21:12N 44°29' E 029°34'0 0.1
2018-Apr-21 21:00N 44°29' E 029°34'0 0.0
2018-Apr-21 20:30N 44°29' E 029°34'0 0.0
2018-Apr-21 20:00N 44°29' E 029°34'0 0.0
2018-Apr-21 19:30N 44°29' E 029°34'1 2.4
2018-Apr-21 19:00N 44°31' E 029°34'1 1.6
2018-Apr-21 18:30N 44°31' E 029°34'0 0.0
2018-Apr-21 17:59N 44°31' E 029°34'0 0.0
2018-Apr-21 17:26N 44°31' E 029°34'0 0.0
2018-Apr-21 16:58N 44°31' E 029°34'0 0.0
2018-Apr-21 16:30N 44°31' E 029°34'  

Dump ship's entire track history